sensor_id;sensor_type;location;lat;lon;timestamp;P1;durP1;ratioP1;P2;durP2;ratioP2
49440;SDS011;35317;51.978;6.296;2024-01-30T00:01:51;16.17;;;8.77;;
49440;SDS011;35317;51.978;6.296;2024-01-30T00:06:52;16.52;;;8.80;;
49440;SDS011;35317;51.978;6.296;2024-01-30T00:11:53;16.85;;;9.32;;
49440;SDS011;35317;51.978;6.296;2024-01-30T00:16:54;15.32;;;9.40;;
49440;SDS011;35317;51.978;6.296;2024-01-30T00:21:54;16.58;;;9.30;;
49440;SDS011;35317;51.978;6.296;2024-01-30T00:26:55;16.52;;;8.75;;
49440;SDS011;35317;51.978;6.296;2024-01-30T00:31:56;17.13;;;8.77;;
49440;SDS011;35317;51.978;6.296;2024-01-30T00:36:57;19.10;;;8.95;;
49440;SDS011;35317;51.978;6.296;2024-01-30T00:41:58;19.77;;;9.13;;
49440;SDS011;35317;51.978;6.296;2024-01-30T00:46:58;16.85;;;9.45;;
49440;SDS011;35317;51.978;6.296;2024-01-30T00:51:59;17.60;;;8.95;;
49440;SDS011;35317;51.978;6.296;2024-01-30T00:57:00;17.13;;;9.55;;
49440;SDS011;35317;51.978;6.296;2024-01-30T01:02:01;15.85;;;9.25;;
49440;SDS011;35317;51.978;6.296;2024-01-30T01:07:02;19.63;;;9.43;;
49440;SDS011;35317;51.978;6.296;2024-01-30T01:12:03;16.50;;;8.77;;
49440;SDS011;35317;51.978;6.296;2024-01-30T01:17:04;14.85;;;8.90;;
49440;SDS011;35317;51.978;6.296;2024-01-30T01:22:05;17.48;;;9.13;;
49440;SDS011;35317;51.978;6.296;2024-01-30T01:27:06;15.43;;;8.98;;
49440;SDS011;35317;51.978;6.296;2024-01-30T01:32:07;17.88;;;9.65;;
49440;SDS011;35317;51.978;6.296;2024-01-30T01:37:08;18.67;;;9.82;;
49440;SDS011;35317;51.978;6.296;2024-01-30T01:42:08;18.80;;;9.57;;
49440;SDS011;35317;51.978;6.296;2024-01-30T01:47:09;17.00;;;9.02;;
49440;SDS011;35317;51.978;6.296;2024-01-30T01:52:10;18.17;;;8.93;;
49440;SDS011;35317;51.978;6.296;2024-01-30T01:57:11;19.17;;;9.88;;
49440;SDS011;35317;51.978;6.296;2024-01-30T02:02:12;17.40;;;9.52;;
49440;SDS011;35317;51.978;6.296;2024-01-30T02:07:17;22.77;;;9.32;;
49440;SDS011;35317;51.978;6.296;2024-01-30T02:12:18;13.90;;;8.73;;
49440;SDS011;35317;51.978;6.296;2024-01-30T02:17:19;18.15;;;9.35;;
49440;SDS011;35317;51.978;6.296;2024-01-30T02:22:20;15.82;;;9.23;;
49440;SDS011;35317;51.978;6.296;2024-01-30T02:27:21;18.40;;;9.32;;
49440;SDS011;35317;51.978;6.296;2024-01-30T02:32:22;19.15;;;9.23;;
49440;SDS011;35317;51.978;6.296;2024-01-30T02:37:23;17.95;;;9.48;;
49440;SDS011;35317;51.978;6.296;2024-01-30T02:42:23;17.00;;;9.05;;
49440;SDS011;35317;51.978;6.296;2024-01-30T02:47:25;17.90;;;9.38;;
49440;SDS011;35317;51.978;6.296;2024-01-30T02:52:25;19.08;;;8.98;;
49440;SDS011;35317;51.978;6.296;2024-01-30T02:57:26;17.25;;;9.65;;
49440;SDS011;35317;51.978;6.296;2024-01-30T03:02:27;21.67;;;10.10;;
49440;SDS011;35317;51.978;6.296;2024-01-30T03:07:28;19.20;;;9.98;;
49440;SDS011;35317;51.978;6.296;2024-01-30T03:12:29;16.75;;;10.15;;
49440;SDS011;35317;51.978;6.296;2024-01-30T03:17:29;23.73;;;10.82;;
49440;SDS011;35317;51.978;6.296;2024-01-30T03:22:30;22.38;;;10.30;;
49440;SDS011;35317;51.978;6.296;2024-01-30T03:27:31;20.58;;;10.90;;
49440;SDS011;35317;51.978;6.296;2024-01-30T03:32:32;18.08;;;10.63;;
49440;SDS011;35317;51.978;6.296;2024-01-30T03:37:32;17.23;;;10.73;;
49440;SDS011;35317;51.978;6.296;2024-01-30T03:42:33;19.70;;;10.80;;
49440;SDS011;35317;51.978;6.296;2024-01-30T03:47:34;23.73;;;11.32;;
49440;SDS011;35317;51.978;6.296;2024-01-30T03:52:34;20.42;;;10.38;;
49440;SDS011;35317;51.978;6.296;2024-01-30T03:57:35;19.67;;;10.35;;
49440;SDS011;35317;51.978;6.296;2024-01-30T04:02:36;21.83;;;9.70;;
49440;SDS011;35317;51.978;6.296;2024-01-30T04:07:37;20.80;;;10.90;;
49440;SDS011;35317;51.978;6.296;2024-01-30T04:12:37;19.80;;;10.45;;
49440;SDS011;35317;51.978;6.296;2024-01-30T04:17:38;20.40;;;10.68;;
49440;SDS011;35317;51.978;6.296;2024-01-30T04:22:39;19.67;;;9.98;;
49440;SDS011;35317;51.978;6.296;2024-01-30T04:27:40;17.77;;;10.48;;
49440;SDS011;35317;51.978;6.296;2024-01-30T04:32:41;21.77;;;10.35;;
49440;SDS011;35317;51.978;6.296;2024-01-30T04:37:43;17.88;;;10.18;;
49440;SDS011;35317;51.978;6.296;2024-01-30T04:42:44;16.27;;;9.60;;
49440;SDS011;35317;51.978;6.296;2024-01-30T04:47:45;23.30;;;11.55;;
49440;SDS011;35317;51.978;6.296;2024-01-30T04:52:46;29.67;;;15.32;;
49440;SDS011;35317;51.978;6.296;2024-01-30T04:57:46;25.30;;;14.15;;
49440;SDS011;35317;51.978;6.296;2024-01-30T05:02:47;27.90;;;14.32;;
49440;SDS011;35317;51.978;6.296;2024-01-30T05:07:48;28.50;;;14.85;;
49440;SDS011;35317;51.978;6.296;2024-01-30T05:12:49;24.23;;;12.95;;
49440;SDS011;35317;51.978;6.296;2024-01-30T05:17:50;20.00;;;11.50;;
49440;SDS011;35317;51.978;6.296;2024-01-30T05:22:51;20.38;;;10.20;;
49440;SDS011;35317;51.978;6.296;2024-01-30T05:27:52;21.63;;;10.30;;
49440;SDS011;35317;51.978;6.296;2024-01-30T05:32:53;18.10;;;9.52;;
49440;SDS011;35317;51.978;6.296;2024-01-30T05:37:54;20.10;;;9.60;;
49440;SDS011;35317;51.978;6.296;2024-01-30T05:42:54;16.88;;;9.93;;
49440;SDS011;35317;51.978;6.296;2024-01-30T05:47:55;21.83;;;9.82;;
49440;SDS011;35317;51.978;6.296;2024-01-30T05:52:56;13.85;;;8.27;;
49440;SDS011;35317;51.978;6.296;2024-01-30T05:57:57;18.35;;;9.48;;
49440;SDS011;35317;51.978;6.296;2024-01-30T06:02:58;16.80;;;9.40;;
49440;SDS011;35317;51.978;6.296;2024-01-30T06:07:59;17.13;;;9.55;;
49440;SDS011;35317;51.978;6.296;2024-01-30T06:12:59;17.05;;;8.88;;
49440;SDS011;35317;51.978;6.296;2024-01-30T06:18:00;14.40;;;7.95;;
49440;SDS011;35317;51.978;6.296;2024-01-30T06:23:01;17.60;;;8.88;;
49440;SDS011;35317;51.978;6.296;2024-01-30T06:28:02;17.08;;;8.63;;
49440;SDS011;35317;51.978;6.296;2024-01-30T06:33:03;14.40;;;8.52;;
49440;SDS011;35317;51.978;6.296;2024-01-30T06:38:04;14.43;;;8.85;;
49440;SDS011;35317;51.978;6.296;2024-01-30T06:43:07;18.27;;;8.25;;
49440;SDS011;35317;51.978;6.296;2024-01-30T06:48:08;16.92;;;8.50;;
49440;SDS011;35317;51.978;6.296;2024-01-30T06:53:08;18.85;;;8.82;;
49440;SDS011;35317;51.978;6.296;2024-01-30T06:58:09;14.98;;;8.73;;
49440;SDS011;35317;51.978;6.296;2024-01-30T07:03:10;15.05;;;8.68;;
49440;SDS011;35317;51.978;6.296;2024-01-30T07:08:11;16.10;;;8.80;;
49440;SDS011;35317;51.978;6.296;2024-01-30T07:13:12;16.05;;;8.43;;
49440;SDS011;35317;51.978;6.296;2024-01-30T07:18:13;13.98;;;8.38;;
49440;SDS011;35317;51.978;6.296;2024-01-30T07:23:13;15.00;;;8.45;;
49440;SDS011;35317;51.978;6.296;2024-01-30T07:28:17;14.93;;;9.07;;
49440;SDS011;35317;51.978;6.296;2024-01-30T07:33:18;15.35;;;9.20;;
49440;SDS011;35317;51.978;6.296;2024-01-30T07:38:19;14.98;;;8.82;;
49440;SDS011;35317;51.978;6.296;2024-01-30T07:43:20;13.27;;;8.45;;
49440;SDS011;35317;51.978;6.296;2024-01-30T07:48:20;19.75;;;9.10;;
49440;SDS011;35317;51.978;6.296;2024-01-30T07:53:21;16.20;;;8.88;;
49440;SDS011;35317;51.978;6.296;2024-01-30T07:58:22;14.85;;;9.27;;
49440;SDS011;35317;51.978;6.296;2024-01-30T08:03:24;16.15;;;9.20;;
49440;SDS011;35317;51.978;6.296;2024-01-30T08:08:24;14.73;;;8.32;;
49440;SDS011;35317;51.978;6.296;2024-01-30T08:13:27;15.98;;;8.50;;
49440;SDS011;35317;51.978;6.296;2024-01-30T08:18:27;17.98;;;8.45;;
49440;SDS011;35317;51.978;6.296;2024-01-30T08:23:28;13.38;;;8.00;;
49440;SDS011;35317;51.978;6.296;2024-01-30T08:28:29;13.38;;;7.72;;
49440;SDS011;35317;51.978;6.296;2024-01-30T08:33:30;15.02;;;8.20;;
49440;SDS011;35317;51.978;6.296;2024-01-30T08:38:31;12.60;;;7.88;;
49440;SDS011;35317;51.978;6.296;2024-01-30T08:43:31;13.50;;;8.20;;
49440;SDS011;35317;51.978;6.296;2024-01-30T08:48:32;13.18;;;7.13;;
49440;SDS011;35317;51.978;6.296;2024-01-30T08:53:33;15.00;;;7.70;;
49440;SDS011;35317;51.978;6.296;2024-01-30T08:58:35;16.23;;;7.63;;
49440;SDS011;35317;51.978;6.296;2024-01-30T09:03:35;12.75;;;7.13;;
49440;SDS011;35317;51.978;6.296;2024-01-30T09:08:39;11.82;;;6.93;;
49440;SDS011;35317;51.978;6.296;2024-01-30T09:13:40;10.43;;;6.80;;
49440;SDS011;35317;51.978;6.296;2024-01-30T09:18:41;8.77;;;5.80;;
49440;SDS011;35317;51.978;6.296;2024-01-30T09:23:42;9.07;;;5.60;;
49440;SDS011;35317;51.978;6.296;2024-01-30T09:28:43;12.75;;;6.30;;
49440;SDS011;35317;51.978;6.296;2024-01-30T09:33:44;12.63;;;6.03;;
49440;SDS011;35317;51.978;6.296;2024-01-30T09:38:47;12.95;;;6.63;;
49440;SDS011;35317;51.978;6.296;2024-01-30T09:43:48;12.52;;;7.03;;
49440;SDS011;35317;51.978;6.296;2024-01-30T09:48:51;16.48;;;6.63;;
49440;SDS011;35317;51.978;6.296;2024-01-30T09:53:53;10.02;;;6.13;;
49440;SDS011;35317;51.978;6.296;2024-01-30T09:59:06;16.45;;;6.00;;
49440;SDS011;35317;51.978;6.296;2024-01-30T10:04:07;12.02;;;6.40;;
49440;SDS011;35317;51.978;6.296;2024-01-30T10:09:08;11.48;;;6.15;;
49440;SDS011;35317;51.978;6.296;2024-01-30T10:14:09;10.65;;;6.35;;
49440;SDS011;35317;51.978;6.296;2024-01-30T10:19:10;10.65;;;6.32;;
49440;SDS011;35317;51.978;6.296;2024-01-30T10:24:10;11.90;;;6.90;;
49440;SDS011;35317;51.978;6.296;2024-01-30T10:29:13;11.82;;;6.55;;
49440;SDS011;35317;51.978;6.296;2024-01-30T10:34:14;17.20;;;5.78;;
49440;SDS011;35317;51.978;6.296;2024-01-30T10:39:15;9.93;;;5.90;;
49440;SDS011;35317;51.978;6.296;2024-01-30T10:44:18;12.27;;;5.70;;
49440;SDS011;35317;51.978;6.296;2024-01-30T10:49:22;13.63;;;6.28;;
49440;SDS011;35317;51.978;6.296;2024-01-30T10:54:24;12.75;;;5.88;;
49440;SDS011;35317;51.978;6.296;2024-01-30T10:59:26;10.18;;;5.70;;
49440;SDS011;35317;51.978;6.296;2024-01-30T11:04:35;14.00;;;5.57;;
49440;SDS011;35317;51.978;6.296;2024-01-30T11:09:37;12.07;;;6.55;;
49440;SDS011;35317;51.978;6.296;2024-01-30T11:14:37;13.52;;;5.55;;
49440;SDS011;35317;51.978;6.296;2024-01-30T11:19:41;14.15;;;6.00;;
49440;SDS011;35317;51.978;6.296;2024-01-30T11:24:42;10.05;;;6.15;;
49440;SDS011;35317;51.978;6.296;2024-01-30T11:29:43;10.35;;;5.60;;
49440;SDS011;35317;51.978;6.296;2024-01-30T11:34:50;10.65;;;5.55;;
49440;SDS011;35317;51.978;6.296;2024-01-30T11:39:51;12.98;;;6.32;;
49440;SDS011;35317;51.978;6.296;2024-01-30T11:44:53;13.60;;;6.00;;
49440;SDS011;35317;51.978;6.296;2024-01-30T11:49:57;12.95;;;5.85;;
49440;SDS011;35317;51.978;6.296;2024-01-30T11:54:58;17.40;;;6.35;;
49440;SDS011;35317;51.978;6.296;2024-01-30T11:59:58;10.60;;;5.40;;
49440;SDS011;35317;51.978;6.296;2024-01-30T12:05:03;9.45;;;5.68;;
49440;SDS011;35317;51.978;6.296;2024-01-30T12:10:08;12.73;;;6.50;;
49440;SDS011;35317;51.978;6.296;2024-01-30T12:15:09;12.43;;;5.60;;
49440;SDS011;35317;51.978;6.296;2024-01-30T12:20:14;9.98;;;5.43;;
49440;SDS011;35317;51.978;6.296;2024-01-30T12:25:19;11.75;;;5.30;;
49440;SDS011;35317;51.978;6.296;2024-01-30T12:30:21;11.10;;;5.03;;
49440;SDS011;35317;51.978;6.296;2024-01-30T12:35:22;9.18;;;4.35;;
49440;SDS011;35317;51.978;6.296;2024-01-30T12:40:23;8.38;;;4.32;;
49440;SDS011;35317;51.978;6.296;2024-01-30T12:45:27;9.33;;;3.93;;
49440;SDS011;35317;51.978;6.296;2024-01-30T12:50:27;6.60;;;3.45;;
49440;SDS011;35317;51.978;6.296;2024-01-30T12:55:28;7.13;;;3.85;;
49440;SDS011;35317;51.978;6.296;2024-01-30T13:00:30;7.82;;;4.63;;
49440;SDS011;35317;51.978;6.296;2024-01-30T13:05:31;7.28;;;3.83;;
49440;SDS011;35317;51.978;6.296;2024-01-30T13:10:32;10.30;;;3.40;;
49440;SDS011;35317;51.978;6.296;2024-01-30T13:15:33;5.70;;;2.90;;
49440;SDS011;35317;51.978;6.296;2024-01-30T13:20:33;5.40;;;2.50;;
49440;SDS011;35317;51.978;6.296;2024-01-30T13:25:34;5.80;;;2.55;;
49440;SDS011;35317;51.978;6.296;2024-01-30T13:30:35;7.68;;;2.80;;
49440;SDS011;35317;51.978;6.296;2024-01-30T13:35:36;6.63;;;2.60;;
49440;SDS011;35317;51.978;6.296;2024-01-30T13:40:37;5.47;;;2.15;;
49440;SDS011;35317;51.978;6.296;2024-01-30T13:45:37;7.75;;;1.63;;
49440;SDS011;35317;51.978;6.296;2024-01-30T13:50:38;7.53;;;2.20;;
49440;SDS011;35317;51.978;6.296;2024-01-30T13:55:39;2.60;;;1.50;;
49440;SDS011;35317;51.978;6.296;2024-01-30T14:00:40;8.65;;;1.60;;
49440;SDS011;35317;51.978;6.296;2024-01-30T14:05:40;6.93;;;1.75;;
49440;SDS011;35317;51.978;6.296;2024-01-30T14:10:41;1.80;;;0.90;;
49440;SDS011;35317;51.978;6.296;2024-01-30T14:15:42;2.03;;;0.73;;
49440;SDS011;35317;51.978;6.296;2024-01-30T14:20:43;2.70;;;0.80;;
49440;SDS011;35317;51.978;6.296;2024-01-30T14:25:44;1.23;;;0.70;;
49440;SDS011;35317;51.978;6.296;2024-01-30T14:30:44;1.98;;;0.75;;
49440;SDS011;35317;51.978;6.296;2024-01-30T14:35:45;2.78;;;0.98;;
49440;SDS011;35317;51.978;6.296;2024-01-30T14:40:46;3.60;;;0.95;;
49440;SDS011;35317;51.978;6.296;2024-01-30T14:45:47;5.90;;;1.70;;
49440;SDS011;35317;51.978;6.296;2024-01-30T14:50:49;10.23;;;1.92;;
49440;SDS011;35317;51.978;6.296;2024-01-30T14:55:50;4.05;;;1.90;;
49440;SDS011;35317;51.978;6.296;2024-01-30T15:00:51;4.72;;;2.33;;
49440;SDS011;35317;51.978;6.296;2024-01-30T15:05:51;6.25;;;2.10;;
49440;SDS011;35317;51.978;6.296;2024-01-30T15:10:55;7.75;;;2.70;;
49440;SDS011;35317;51.978;6.296;2024-01-30T15:15:57;10.45;;;3.63;;
49440;SDS011;35317;51.978;6.296;2024-01-30T15:20:58;7.70;;;3.03;;
49440;SDS011;35317;51.978;6.296;2024-01-30T15:25:59;4.60;;;2.63;;
49440;SDS011;35317;51.978;6.296;2024-01-30T15:31:00;3.72;;;2.28;;
49440;SDS011;35317;51.978;6.296;2024-01-30T15:36:01;6.20;;;2.63;;
49440;SDS011;35317;51.978;6.296;2024-01-30T15:41:02;5.63;;;3.08;;
49440;SDS011;35317;51.978;6.296;2024-01-30T15:46:03;6.30;;;2.47;;
49440;SDS011;35317;51.978;6.296;2024-01-30T15:51:04;6.30;;;2.85;;
49440;SDS011;35317;51.978;6.296;2024-01-30T15:56:04;6.10;;;2.40;;
49440;SDS011;35317;51.978;6.296;2024-01-30T16:01:06;8.88;;;2.42;;
49440;SDS011;35317;51.978;6.296;2024-01-30T16:06:07;6.38;;;2.63;;
49440;SDS011;35317;51.978;6.296;2024-01-30T16:11:08;3.55;;;2.33;;
49440;SDS011;35317;51.978;6.296;2024-01-30T16:16:09;3.78;;;2.30;;
49440;SDS011;35317;51.978;6.296;2024-01-30T16:21:11;5.38;;;2.50;;
49440;SDS011;35317;51.978;6.296;2024-01-30T16:26:14;4.70;;;2.30;;
49440;SDS011;35317;51.978;6.296;2024-01-30T16:31:14;6.97;;;2.10;;
49440;SDS011;35317;51.978;6.296;2024-01-30T16:36:20;7.88;;;2.00;;
49440;SDS011;35317;51.978;6.296;2024-01-30T16:41:21;2.30;;;1.70;;
49440;SDS011;35317;51.978;6.296;2024-01-30T16:46:22;5.55;;;2.65;;
49440;SDS011;35317;51.978;6.296;2024-01-30T16:51:23;4.32;;;2.47;;
49440;SDS011;35317;51.978;6.296;2024-01-30T16:56:24;4.80;;;2.58;;
49440;SDS011;35317;51.978;6.296;2024-01-30T17:01:25;3.83;;;2.97;;
49440;SDS011;35317;51.978;6.296;2024-01-30T17:06:26;5.10;;;3.13;;
49440;SDS011;35317;51.978;6.296;2024-01-30T17:11:26;4.90;;;3.60;;
49440;SDS011;35317;51.978;6.296;2024-01-30T17:16:27;6.15;;;3.72;;
49440;SDS011;35317;51.978;6.296;2024-01-30T17:21:30;4.90;;;3.47;;
49440;SDS011;35317;51.978;6.296;2024-01-30T17:26:34;6.72;;;3.63;;
49440;SDS011;35317;51.978;6.296;2024-01-30T17:31:35;5.82;;;4.60;;
49440;SDS011;35317;51.978;6.296;2024-01-30T17:36:37;9.18;;;4.55;;
49440;SDS011;35317;51.978;6.296;2024-01-30T17:41:37;6.97;;;3.97;;
49440;SDS011;35317;51.978;6.296;2024-01-30T17:46:38;7.20;;;5.15;;
49440;SDS011;35317;51.978;6.296;2024-01-30T17:51:39;10.65;;;5.78;;
49440;SDS011;35317;51.978;6.296;2024-01-30T17:56:40;11.70;;;6.22;;
49440;SDS011;35317;51.978;6.296;2024-01-30T18:01:45;11.45;;;6.65;;
49440;SDS011;35317;51.978;6.296;2024-01-30T18:06:51;11.93;;;7.00;;
49440;SDS011;35317;51.978;6.296;2024-01-30T18:11:54;10.40;;;6.28;;
49440;SDS011;35317;51.978;6.296;2024-01-30T18:16:55;13.95;;;8.20;;
49440;SDS011;35317;51.978;6.296;2024-01-30T18:21:56;14.10;;;7.63;;
49440;SDS011;35317;51.978;6.296;2024-01-30T18:26:56;19.50;;;9.57;;
49440;SDS011;35317;51.978;6.296;2024-01-30T18:31:57;15.85;;;7.95;;
49440;SDS011;35317;51.978;6.296;2024-01-30T18:36:58;17.90;;;8.98;;
49440;SDS011;35317;51.978;6.296;2024-01-30T18:42:00;15.38;;;8.27;;
49440;SDS011;35317;51.978;6.296;2024-01-30T18:47:01;15.88;;;9.18;;
49440;SDS011;35317;51.978;6.296;2024-01-30T18:52:02;15.15;;;8.65;;
49440;SDS011;35317;51.978;6.296;2024-01-30T18:57:05;15.60;;;8.90;;
49440;SDS011;35317;51.978;6.296;2024-01-30T19:02:05;17.45;;;8.70;;
49440;SDS011;35317;51.978;6.296;2024-01-30T19:07:06;15.48;;;8.40;;
49440;SDS011;35317;51.978;6.296;2024-01-30T19:12:08;17.98;;;8.52;;
49440;SDS011;35317;51.978;6.296;2024-01-30T19:17:08;14.88;;;8.30;;
49440;SDS011;35317;51.978;6.296;2024-01-30T19:22:09;16.67;;;8.45;;
49440;SDS011;35317;51.978;6.296;2024-01-30T19:27:10;15.65;;;8.25;;
49440;SDS011;35317;51.978;6.296;2024-01-30T19:32:11;13.90;;;7.35;;
49440;SDS011;35317;51.978;6.296;2024-01-30T19:37:11;12.70;;;7.30;;
49440;SDS011;35317;51.978;6.296;2024-01-30T19:42:12;13.27;;;7.07;;
49440;SDS011;35317;51.978;6.296;2024-01-30T19:47:13;14.70;;;8.18;;
49440;SDS011;35317;51.978;6.296;2024-01-30T19:52:14;11.43;;;6.90;;
49440;SDS011;35317;51.978;6.296;2024-01-30T19:57:15;12.50;;;7.00;;
49440;SDS011;35317;51.978;6.296;2024-01-30T20:02:15;10.80;;;6.00;;
49440;SDS011;35317;51.978;6.296;2024-01-30T20:07:39;11.20;;;5.30;;
49440;SDS011;35317;51.978;6.296;2024-01-30T20:12:40;10.57;;;6.68;;
49440;SDS011;35317;51.978;6.296;2024-01-30T20:17:42;10.23;;;5.85;;
49440;SDS011;35317;51.978;6.296;2024-01-30T20:22:44;11.07;;;5.68;;
49440;SDS011;35317;51.978;6.296;2024-01-30T20:27:47;9.07;;;4.75;;
49440;SDS011;35317;51.978;6.296;2024-01-30T20:32:47;12.27;;;5.72;;
49440;SDS011;35317;51.978;6.296;2024-01-30T20:37:48;12.18;;;4.85;;
49440;SDS011;35317;51.978;6.296;2024-01-30T20:42:50;7.30;;;4.45;;
49440;SDS011;35317;51.978;6.296;2024-01-30T20:47:50;11.40;;;4.03;;
49440;SDS011;35317;51.978;6.296;2024-01-30T20:52:54;9.18;;;4.05;;
49440;SDS011;35317;51.978;6.296;2024-01-30T20:57:57;12.77;;;3.10;;
49440;SDS011;35317;51.978;6.296;2024-01-30T21:02:58;8.05;;;2.55;;
49440;SDS011;35317;51.978;6.296;2024-01-30T21:07:59;10.65;;;3.40;;
49440;SDS011;35317;51.978;6.296;2024-01-30T21:13:00;13.52;;;3.10;;
49440;SDS011;35317;51.978;6.296;2024-01-30T21:18:01;13.27;;;3.03;;
49440;SDS011;35317;51.978;6.296;2024-01-30T21:23:04;13.80;;;2.90;;
49440;SDS011;35317;51.978;6.296;2024-01-30T21:28:05;14.32;;;3.08;;
49440;SDS011;35317;51.978;6.296;2024-01-30T21:33:06;13.07;;;2.80;;
49440;SDS011;35317;51.978;6.296;2024-01-30T21:38:08;8.95;;;2.70;;
49440;SDS011;35317;51.978;6.296;2024-01-30T21:43:09;12.55;;;3.72;;
49440;SDS011;35317;51.978;6.296;2024-01-30T22:04:54;16.95;;;3.75;;
49440;SDS011;35317;51.978;6.296;2024-01-30T22:16:35;12.10;;;3.60;;
49440;SDS011;35317;51.978;6.296;2024-01-30T22:21:47;12.38;;;3.60;;
49440;SDS011;35317;51.978;6.296;2024-01-30T22:26:48;20.95;;;3.88;;
49440;SDS011;35317;51.978;6.296;2024-01-30T22:31:48;16.83;;;4.35;;
49440;SDS011;35317;51.978;6.296;2024-01-30T22:36:49;15.73;;;2.80;;
49440;SDS011;35317;51.978;6.296;2024-01-30T22:41:50;6.53;;;1.20;;
49440;SDS011;35317;51.978;6.296;2024-01-30T22:46:51;10.20;;;1.50;;
49440;SDS011;35317;51.978;6.296;2024-01-30T22:51:51;8.10;;;1.50;;
49440;SDS011;35317;51.978;6.296;2024-01-30T22:56:52;9.18;;;1.38;;
49440;SDS011;35317;51.978;6.296;2024-01-30T23:01:53;8.73;;;1.70;;
49440;SDS011;35317;51.978;6.296;2024-01-30T23:06:54;6.80;;;1.77;;
49440;SDS011;35317;51.978;6.296;2024-01-30T23:11:54;10.27;;;2.20;;
49440;SDS011;35317;51.978;6.296;2024-01-30T23:16:55;6.15;;;1.63;;
49440;SDS011;35317;51.978;6.296;2024-01-30T23:21:56;7.50;;;1.70;;
49440;SDS011;35317;51.978;6.296;2024-01-30T23:26:57;7.20;;;1.30;;
49440;SDS011;35317;51.978;6.296;2024-01-30T23:31:57;9.00;;;1.55;;
49440;SDS011;35317;51.978;6.296;2024-01-30T23:36:58;8.23;;;1.40;;
49440;SDS011;35317;51.978;6.296;2024-01-30T23:41:59;4.88;;;1.17;;
49440;SDS011;35317;51.978;6.296;2024-01-30T23:47:00;7.13;;;1.13;;
49440;SDS011;35317;51.978;6.296;2024-01-30T23:52:01;3.80;;;0.95;;
49440;SDS011;35317;51.978;6.296;2024-01-30T23:57:02;4.25;;;0.75;;
